createdAt,value
2022-11-05T00:00:35.227Z,53.86
2022-11-05T00:03:27.793Z,53.89
2022-11-05T00:06:14.667Z,54.17
2022-11-05T00:09:01.538Z,54.22
2022-11-05T00:11:48.400Z,54.25
2022-11-05T00:14:35.306Z,54.48
2022-11-05T00:17:03.253Z,54.62
2022-11-05T00:19:31.031Z,54.76
2022-11-05T00:22:17.747Z,54.86
2022-11-05T00:25:04.519Z,54.78
2022-11-05T00:27:35.608Z,54.85
2022-11-05T00:30:10.026Z,54.74
2022-11-05T00:32:38.254Z,54.57
2022-11-05T00:35:07.538Z,54.65
2022-11-05T00:37:36.348Z,54.63
2022-11-05T00:40:04.653Z,54.57
2022-11-05T00:42:51.429Z,54.37
2022-11-05T00:45:19.650Z,54.36
2022-11-05T00:48:23.111Z,54.51
2022-11-05T00:50:50.981Z,54.48
2022-11-05T00:53:19.390Z,54.48
2022-11-05T00:55:48.020Z,54.52
2022-11-05T00:58:17.448Z,54.62
2022-11-05T01:00:48.998Z,54.70
2022-11-05T01:03:17.986Z,54.55
2022-11-05T01:05:47.316Z,54.57
2022-11-05T01:08:16.283Z,54.30
2022-11-05T01:10:45.728Z,54.13
2022-11-05T01:13:14.601Z,53.96
2022-11-05T01:15:42.766Z,53.87
2022-11-05T01:18:11.105Z,53.92
2022-11-05T01:20:39.223Z,54.07
2022-11-05T01:23:12.993Z,53.86
2022-11-05T01:25:44.619Z,53.53
2022-11-05T01:28:12.619Z,53.47
2022-11-05T01:30:40.417Z,53.59
2022-11-05T01:33:08.896Z,53.72
2022-11-05T01:35:36.943Z,53.85
2022-11-05T01:38:04.753Z,54.09
2022-11-05T01:40:32.909Z,54.30
2022-11-05T01:43:00.822Z,54.65
2022-11-05T01:45:29.740Z,55.18
2022-11-05T01:47:58.048Z,55.53
2022-11-05T01:50:29.556Z,55.92
2022-11-05T01:53:03.225Z,56.44
2022-11-05T01:55:33.989Z,57.01
2022-11-05T01:58:03.250Z,57.37
2022-11-05T02:00:31.737Z,58.68
2022-11-05T02:03:00.128Z,59.35
2022-11-05T02:05:28.840Z,58.50
2022-11-05T02:07:56.658Z,58.53
2022-11-05T02:10:24.434Z,58.40
2022-11-05T02:12:52.847Z,58.59
2022-11-05T02:15:38.608Z,59.11
2022-11-05T02:18:25.125Z,59.23
2022-11-05T02:21:00.185Z,59.29
2022-11-05T02:23:40.237Z,60.10
2022-11-05T02:26:21.937Z,61.41
2022-11-05T02:29:25.011Z,61.49
2022-11-05T02:31:55.788Z,61.31
2022-11-05T02:34:44.904Z,61.00
2022-11-05T02:37:28.190Z,60.91
2022-11-05T02:40:05.519Z,60.85
2022-11-05T02:42:33.225Z,60.48
2022-11-05T02:45:10.777Z,60.67
2022-11-05T02:47:38.910Z,60.26
2022-11-05T02:50:18.513Z,59.95
2022-11-05T02:52:49.439Z,60.13
2022-11-05T02:55:27.008Z,60.19
2022-11-05T02:57:54.975Z,60.15
2022-11-05T03:00:39.410Z,60.19
2022-11-05T03:03:18.541Z,60.22
2022-11-05T03:05:59.003Z,60.13
2022-11-05T03:08:38.998Z,60.07
2022-11-05T03:11:17.241Z,60.08
2022-11-05T03:13:45.102Z,60.25
2022-11-05T03:16:18.159Z,60.38
2022-11-05T03:18:48.732Z,60.47
2022-11-05T03:21:20.003Z,60.40
2022-11-05T03:24:10.747Z,60.43
2022-11-05T03:26:42.151Z,60.86
2022-11-05T03:29:13.458Z,60.94
2022-11-05T03:31:41.794Z,60.82
2022-11-05T03:34:10.605Z,61.06
2022-11-05T03:36:41.313Z,61.15
2022-11-05T03:39:11.403Z,61.76
2022-11-05T03:41:43.318Z,61.97
2022-11-05T03:44:13.217Z,61.78
2022-11-05T03:46:48.079Z,62.56
2022-11-05T03:49:19.198Z,62.58
2022-11-05T03:52:19.699Z,62.83
2022-11-05T03:54:47.555Z,62.58
2022-11-05T03:57:20.856Z,62.42
2022-11-05T03:59:50.595Z,62.43
2022-11-05T04:02:20.084Z,62.52
2022-11-05T04:04:48.823Z,63.05
2022-11-05T04:07:35.453Z,63.80
2022-11-05T04:10:22.475Z,64.15
2022-11-05T04:13:09.050Z,64.40
2022-11-05T04:15:57.310Z,64.98
2022-11-05T04:18:25.078Z,65.30
2022-11-05T04:21:11.967Z,65.25
2022-11-05T04:23:59.584Z,65.08
2022-11-05T04:26:27.719Z,65.08
2022-11-05T04:29:14.298Z,64.98
2022-11-05T04:31:42.069Z,64.97
2022-11-05T04:34:09.914Z,64.98
2022-11-05T04:36:37.914Z,65.02
2022-11-05T04:39:05.712Z,65.24
2022-11-05T04:41:33.537Z,65.28
2022-11-05T04:44:01.263Z,65.50
2022-11-05T04:46:29.407Z,65.53
2022-11-05T04:48:57.562Z,65.70
2022-11-05T04:51:27.630Z,65.84
2022-11-05T04:53:55.598Z,65.74
2022-11-05T04:56:24.640Z,65.66
2022-11-05T04:58:53.033Z,65.64
2022-11-05T05:01:23.169Z,65.64
2022-11-05T05:03:51.745Z,65.75
2022-11-05T05:06:20.130Z,65.82
2022-11-05T05:08:48.898Z,66.07
2022-11-05T05:11:17.845Z,66.18
2022-11-05T05:13:46.203Z,66.64
2022-11-05T05:16:24.602Z,67.16
2022-11-05T05:18:53.306Z,67.27
2022-11-05T05:21:40.966Z,67.08
2022-11-05T05:24:13.765Z,66.84
2022-11-05T05:26:43.159Z,66.72
2022-11-05T05:29:11.626Z,66.77
2022-11-05T05:31:40.208Z,66.71
2022-11-05T05:34:10.687Z,66.68
2022-11-05T05:36:38.540Z,66.74
2022-11-05T05:39:07.115Z,67.04
2022-11-05T05:41:35.210Z,67.25
2022-11-05T05:44:04.419Z,67.34
2022-11-05T05:46:32.438Z,67.49
2022-11-05T05:49:00.339Z,67.54
2022-11-05T05:51:28.272Z,67.29
2022-11-05T05:53:56.332Z,67.28
2022-11-05T05:56:24.752Z,67.49
2022-11-05T05:58:52.851Z,67.41
2022-11-05T06:01:21.716Z,67.24
2022-11-05T06:03:49.933Z,67.01
2022-11-05T06:06:21.260Z,67.05
2022-11-05T06:08:49.581Z,67.18
2022-11-05T06:11:17.479Z,67.26
2022-11-05T06:13:45.451Z,67.18
2022-11-05T06:16:13.574Z,67.32
2022-11-05T06:18:41.921Z,67.50
2022-11-05T06:21:11.058Z,67.70
2022-11-05T06:23:40.223Z,67.80
2022-11-05T06:26:15.634Z,67.68
2022-11-05T06:28:44.325Z,67.74
2022-11-05T06:31:14.402Z,67.74
2022-11-05T06:33:42.659Z,67.78
2022-11-05T06:36:14.541Z,67.80
2022-11-05T06:38:42.541Z,67.90
2022-11-05T06:41:10.955Z,68.00
2022-11-05T06:43:39.484Z,68.10
2022-11-05T06:46:07.868Z,68.24
2022-11-05T06:48:36.203Z,68.29
2022-11-05T06:51:04.676Z,68.38
2022-11-05T06:53:32.540Z,68.55
2022-11-05T06:56:07.390Z,68.55
2022-11-05T06:58:35.914Z,68.51
2022-11-05T07:01:06.176Z,68.42
2022-11-05T07:03:35.153Z,68.27
2022-11-05T07:06:04.413Z,68.06
2022-11-05T07:08:33.636Z,68.00
2022-11-05T07:11:01.614Z,67.86
2022-11-05T07:13:29.573Z,67.73
2022-11-05T07:15:58.071Z,67.61
2022-11-05T07:18:26.004Z,67.68
2022-11-05T07:20:54.450Z,67.67
2022-11-05T07:23:22.677Z,67.43
2022-11-05T07:25:50.644Z,67.28
2022-11-05T07:28:18.809Z,66.98
2022-11-05T07:30:48.781Z,66.86
2022-11-05T07:33:16.836Z,66.90
2022-11-05T07:35:44.735Z,66.88
2022-11-05T07:38:12.638Z,66.78
2022-11-05T07:40:40.693Z,66.60
2022-11-05T07:43:09.125Z,66.45
2022-11-05T07:45:37.207Z,66.34
2022-11-05T07:48:05.525Z,66.28
2022-11-05T07:50:34.659Z,66.24
2022-11-05T07:53:07.384Z,66.34
2022-11-05T07:55:35.617Z,66.43
2022-11-05T07:58:04.182Z,66.49
2022-11-05T08:00:32.295Z,66.46
2022-11-05T08:03:09.511Z,66.53
2022-11-05T08:05:38.913Z,66.62
2022-11-05T08:08:08.610Z,66.72
2022-11-05T08:10:37.447Z,66.83
2022-11-05T08:13:05.861Z,66.96
2022-11-05T08:15:35.010Z,67.09
2022-11-05T08:18:04.434Z,66.98
2022-11-05T08:20:32.769Z,67.07
2022-11-05T08:23:01.228Z,67.01
2022-11-05T08:25:29.475Z,66.99
2022-11-05T08:28:08.649Z,66.90
2022-11-05T08:30:36.847Z,66.91
2022-11-05T08:33:06.285Z,66.87
2022-11-05T08:35:35.591Z,66.79
2022-11-05T08:38:05.156Z,66.71
2022-11-05T08:40:34.563Z,66.75
2022-11-05T08:43:04.302Z,66.59
2022-11-05T08:45:32.627Z,66.46
2022-11-05T08:48:01.288Z,66.32
2022-11-05T08:50:29.854Z,66.29
2022-11-05T08:52:57.694Z,66.22
2022-11-05T08:55:26.152Z,66.18
2022-11-05T08:58:01.834Z,66.06
2022-11-05T09:00:31.414Z,65.93
2022-11-05T09:03:03.461Z,65.73
2022-11-05T09:05:32.277Z,65.57
2022-11-05T09:08:01.520Z,65.30
2022-11-05T09:10:29.639Z,65.05
2022-11-05T09:12:57.540Z,64.47
2022-11-05T09:15:25.884Z,64.16
2022-11-05T09:17:55.226Z,63.78
2022-11-05T09:20:23.922Z,63.58
2022-11-05T09:22:51.816Z,63.30
2022-11-05T09:25:19.863Z,62.56
2022-11-05T09:27:47.757Z,61.72
2022-11-05T09:30:15.915Z,61.16
2022-11-05T09:32:43.819Z,60.57
2022-11-05T09:35:11.687Z,59.72
2022-11-05T09:37:39.769Z,59.38
2022-11-05T09:40:07.896Z,59.62
2022-11-05T09:42:38.465Z,59.59
2022-11-05T09:45:17.647Z,59.51
2022-11-05T09:48:12.689Z,59.45
2022-11-05T09:50:42.909Z,57.68
2022-11-05T09:53:14.912Z,57.50
2022-11-05T09:55:44.262Z,57.96
2022-11-05T09:58:19.030Z,58.29
2022-11-05T10:00:53.101Z,58.21
2022-11-05T10:03:24.802Z,58.62
2022-11-05T10:05:54.833Z,58.61
2022-11-05T10:08:24.760Z,58.78
2022-11-05T10:10:52.557Z,58.51
2022-11-05T10:13:28.498Z,58.75
2022-11-05T10:16:02.709Z,58.51
2022-11-05T10:18:34.530Z,58.33
2022-11-05T10:21:02.627Z,58.18
2022-11-05T10:23:30.805Z,58.31
2022-11-05T10:26:05.534Z,58.62
2022-11-05T10:28:34.705Z,58.57
2022-11-05T10:31:04.367Z,58.51
2022-11-05T10:33:34.664Z,58.58
2022-11-05T10:36:06.621Z,58.43
2022-11-05T10:38:34.435Z,58.04
2022-11-05T10:41:02.392Z,58.07
2022-11-05T10:43:42.216Z,58.09
2022-11-05T10:46:30.421Z,57.39
2022-11-05T10:48:58.132Z,57.18
2022-11-05T10:51:26.011Z,57.17
2022-11-05T10:54:01.523Z,57.55
2022-11-05T10:56:32.416Z,57.96
2022-11-05T10:59:00.997Z,57.94
2022-11-05T11:01:29.472Z,57.85
2022-11-05T11:04:05.422Z,57.84
2022-11-05T11:06:36.858Z,57.46
2022-11-05T11:09:18.071Z,57.22
2022-11-05T11:11:46.078Z,56.95
2022-11-05T11:14:14.026Z,56.91
2022-11-05T11:16:43.189Z,56.98
2022-11-05T11:19:34.515Z,56.93
2022-11-05T11:22:05.383Z,56.42
2022-11-05T11:24:40.378Z,55.79
2022-11-05T11:27:10.663Z,55.65
2022-11-05T11:29:45.075Z,55.40
2022-11-05T11:32:17.148Z,54.77
2022-11-05T11:34:46.142Z,54.54
2022-11-05T11:37:19.783Z,54.38
2022-11-05T11:40:14.838Z,53.74
2022-11-05T11:42:46.054Z,53.95
2022-11-05T11:45:33.103Z,53.75
2022-11-05T11:48:08.295Z,53.51
2022-11-05T11:51:02.417Z,53.43
2022-11-05T11:53:33.425Z,53.38
2022-11-05T11:56:05.618Z,53.42
2022-11-05T11:58:38.817Z,53.56
2022-11-05T12:01:25.626Z,53.69
2022-11-05T12:04:02.995Z,54.01
2022-11-05T12:06:49.607Z,54.00
2022-11-05T12:09:17.668Z,54.06
2022-11-05T12:12:13.035Z,53.62
2022-11-05T12:14:53.705Z,53.92
2022-11-05T12:17:40.454Z,54.12
2022-11-05T12:20:11.408Z,54.31
2022-11-05T12:22:39.623Z,54.13
2022-11-05T12:25:27.953Z,54.35
2022-11-05T12:28:15.974Z,54.72
2022-11-05T12:30:51.232Z,54.68
2022-11-05T12:33:25.157Z,54.81
2022-11-05T12:36:05.518Z,54.91
2022-11-05T12:38:39.373Z,54.60
2022-11-05T12:41:16.398Z,54.95
2022-11-05T12:43:56.325Z,54.90
2022-11-05T12:46:27.253Z,54.94
2022-11-05T12:49:13.744Z,54.73
2022-11-05T12:51:44.705Z,55.14
2022-11-05T12:54:31.587Z,55.40
2022-11-05T12:57:01.876Z,55.36
2022-11-05T12:59:32.898Z,55.35
2022-11-05T13:02:03.745Z,55.94
2022-11-05T13:04:40.351Z,55.63
2022-11-05T13:07:11.247Z,55.27
2022-11-05T13:09:49.431Z,55.06
2022-11-05T13:12:19.568Z,55.33
2022-11-05T13:14:51.872Z,55.38
2022-11-05T13:17:25.013Z,55.33
2022-11-05T13:19:57.455Z,55.16
2022-11-05T13:22:34.738Z,55.16
2022-11-05T13:25:13.344Z,55.01
2022-11-05T13:27:46.011Z,54.86
2022-11-05T13:30:20.131Z,55.04
2022-11-05T13:33:04.168Z,55.09
2022-11-05T13:35:37.401Z,54.96
2022-11-05T13:38:26.235Z,55.03
2022-11-05T13:41:12.600Z,55.27
2022-11-05T13:43:52.924Z,55.25
2022-11-05T13:46:39.464Z,55.34
2022-11-05T13:49:10.595Z,55.39
2022-11-05T13:51:39.521Z,55.55
2022-11-05T13:54:21.468Z,55.52
2022-11-05T13:57:00.191Z,55.40
2022-11-05T13:59:47.441Z,55.48
2022-11-05T14:02:18.924Z,55.52
2022-11-05T14:04:49.236Z,55.67
2022-11-05T14:07:20.559Z,55.87
2022-11-05T14:09:57.313Z,56.07
2022-11-05T14:12:27.938Z,56.24
2022-11-05T14:15:01.183Z,56.36
2022-11-05T14:17:32.356Z,56.48
2022-11-05T14:20:04.261Z,56.64
2022-11-05T14:22:32.504Z,56.88
2022-11-05T14:25:01.354Z,56.98
2022-11-05T14:27:29.078Z,57.07
2022-11-05T14:29:57.370Z,57.14
2022-11-05T14:32:27.498Z,57.20
2022-11-05T14:35:05.009Z,57.34
2022-11-05T14:37:34.846Z,57.42
2022-11-05T14:40:22.823Z,57.61
2022-11-05T14:42:52.013Z,57.76
2022-11-05T14:45:40.350Z,57.91
2022-11-05T14:48:26.125Z,58.01
2022-11-05T14:50:55.020Z,58.06
2022-11-05T14:53:26.689Z,58.14
2022-11-05T14:56:00.963Z,58.33
2022-11-05T14:58:30.628Z,58.45
2022-11-05T15:00:59.224Z,58.62
2022-11-05T15:03:30.211Z,58.75
2022-11-05T15:06:21.281Z,58.73
2022-11-05T15:08:49.344Z,58.81
2022-11-05T15:11:23.163Z,58.92
2022-11-05T15:13:58.585Z,58.94
2022-11-05T15:16:30.665Z,59.01
2022-11-05T15:18:58.863Z,59.12
2022-11-05T15:21:28.424Z,59.14
2022-11-05T15:23:56.821Z,59.20
2022-11-05T15:26:40.419Z,59.44
2022-11-05T15:29:22.296Z,59.55
2022-11-05T15:31:50.736Z,59.35
2022-11-05T15:34:18.559Z,59.34
2022-11-05T15:36:50.045Z,59.38
2022-11-05T15:39:29.413Z,59.42
2022-11-05T15:41:59.071Z,59.59
2022-11-05T15:44:31.841Z,59.91
2022-11-05T15:47:07.342Z,59.95
2022-11-05T15:49:35.255Z,60.09
2022-11-05T15:52:03.424Z,60.46
2022-11-05T15:54:31.952Z,60.79
2022-11-05T15:57:00.168Z,61.22
2022-11-05T15:59:29.388Z,61.12
2022-11-05T16:02:16.218Z,61.23
2022-11-05T16:04:47.678Z,61.21
2022-11-05T16:07:15.746Z,61.54
2022-11-05T16:09:51.092Z,61.46
2022-11-05T16:12:19.840Z,61.35
2022-11-05T16:15:00.287Z,61.66
2022-11-05T16:17:30.703Z,61.73
2022-11-05T16:19:58.943Z,61.52
2022-11-05T16:22:43.734Z,61.78
2022-11-05T16:25:27.470Z,62.46
2022-11-05T16:27:56.823Z,63.89
2022-11-05T16:30:25.144Z,63.15
2022-11-05T16:32:53.321Z,61.95
2022-11-05T16:35:22.654Z,61.60
2022-11-05T16:37:52.468Z,61.63
2022-11-05T16:40:20.663Z,61.67
2022-11-05T16:42:51.239Z,61.82
2022-11-05T16:45:20.536Z,61.96
2022-11-05T16:47:48.590Z,62.03
2022-11-05T16:50:18.502Z,62.03
2022-11-05T16:52:46.889Z,62.14
2022-11-05T16:55:15.288Z,62.10
2022-11-05T16:57:44.511Z,62.13
2022-11-05T17:00:16.964Z,62.13
2022-11-05T17:02:45.356Z,62.39
2022-11-05T17:05:17.520Z,62.52
2022-11-05T17:07:45.642Z,62.45
2022-11-05T17:10:13.959Z,62.66
2022-11-05T17:12:42.689Z,62.51
2022-11-05T17:15:35.781Z,62.44
2022-11-05T17:18:04.535Z,62.76
2022-11-05T17:20:40.640Z,62.86
2022-11-05T17:23:10.429Z,62.83
2022-11-05T17:25:39.778Z,62.79
2022-11-05T17:28:08.427Z,62.63
2022-11-05T17:30:38.608Z,63.06
2022-11-05T17:33:08.313Z,63.00
2022-11-05T17:35:37.884Z,62.94
2022-11-05T17:38:05.788Z,63.18
2022-11-05T17:40:34.086Z,63.42
2022-11-05T17:43:01.915Z,63.73
2022-11-05T17:45:30.073Z,64.14
2022-11-05T17:47:57.911Z,64.25
2022-11-05T17:50:25.854Z,64.28
2022-11-05T17:52:53.668Z,64.11
2022-11-05T17:55:21.944Z,64.14
2022-11-05T17:57:50.931Z,64.19
2022-11-05T18:00:20.854Z,63.94
2022-11-05T18:02:49.631Z,63.96
2022-11-05T18:05:18.686Z,64.03
2022-11-05T18:07:47.103Z,64.44
2022-11-05T18:10:15.505Z,64.45
2022-11-05T18:12:44.129Z,64.57
2022-11-05T18:15:12.685Z,64.73
2022-11-05T18:17:40.830Z,64.82
2022-11-05T18:20:14.179Z,64.85
2022-11-05T18:22:45.514Z,65.02
2022-11-05T18:25:14.282Z,65.12
2022-11-05T18:27:42.274Z,65.84
2022-11-05T18:30:10.963Z,68.17
2022-11-05T18:32:39.171Z,66.44
2022-11-05T18:35:07.703Z,65.68
2022-11-05T18:37:37.603Z,65.61
2022-11-05T18:40:07.129Z,65.38
2022-11-05T18:42:36.410Z,65.27
2022-11-05T18:45:06.074Z,65.18
2022-11-05T18:47:34.478Z,65.10
2022-11-05T18:50:02.649Z,65.08
2022-11-05T18:52:31.925Z,65.05
2022-11-05T18:55:00.340Z,65.03
2022-11-05T18:57:28.842Z,65.11
2022-11-05T18:59:56.653Z,65.11
2022-11-05T19:02:24.666Z,65.18
2022-11-05T19:05:14.472Z,65.29
2022-11-05T19:07:41.552Z,65.27
2022-11-05T19:10:09.495Z,65.41
2022-11-05T19:12:37.532Z,65.38
2022-11-05T19:15:06.600Z,65.28
2022-11-05T19:17:35.226Z,65.13
2022-11-05T19:20:03.424Z,65.08
2022-11-05T19:22:31.981Z,65.36
2022-11-05T19:25:00.278Z,65.44
2022-11-05T19:27:28.255Z,65.44
2022-11-05T19:29:56.329Z,65.49
2022-11-05T19:32:24.988Z,65.60
2022-11-05T19:34:53.123Z,65.75
2022-11-05T19:37:21.479Z,65.66
2022-11-05T19:39:49.384Z,65.70
2022-11-05T19:42:17.260Z,65.83
2022-11-05T19:44:45.566Z,66.15
2022-11-05T19:47:13.823Z,66.03
2022-11-05T19:49:41.555Z,66.08
2022-11-05T19:52:09.296Z,66.30
2022-11-05T19:54:37.887Z,66.44
2022-11-05T19:57:06.503Z,66.46
2022-11-05T19:59:34.429Z,66.41
2022-11-05T20:02:02.699Z,66.39
2022-11-05T20:04:31.152Z,66.35
2022-11-05T20:06:59.091Z,66.18
2022-11-05T20:09:28.047Z,67.02
2022-11-05T20:11:58.936Z,66.55
2022-11-05T20:14:27.007Z,66.16
2022-11-05T20:16:55.064Z,66.10
2022-11-05T20:19:23.823Z,65.99
2022-11-05T20:21:52.009Z,65.95
2022-11-05T20:24:24.816Z,65.90
2022-11-05T20:26:55.522Z,65.95
2022-11-05T20:29:27.866Z,65.97
2022-11-05T20:31:59.159Z,65.79
2022-11-05T20:34:28.477Z,65.87
2022-11-05T20:36:56.579Z,65.75
2022-11-05T20:39:24.751Z,65.72
2022-11-05T20:41:53.488Z,65.76
2022-11-05T20:44:21.402Z,65.76
2022-11-05T20:46:49.276Z,65.99
2022-11-05T20:49:21.267Z,65.76
2022-11-05T20:51:52.443Z,65.88
2022-11-05T20:54:20.724Z,65.83
2022-11-05T20:56:48.591Z,65.80
2022-11-05T20:59:16.717Z,66.01
2022-11-05T21:01:44.801Z,66.01
2022-11-05T21:04:13.251Z,66.07
2022-11-05T21:06:41.488Z,66.11
2022-11-05T21:09:09.491Z,66.22
2022-11-05T21:11:56.211Z,66.35
2022-11-05T21:14:24.586Z,66.34
2022-11-05T21:16:52.893Z,66.45
2022-11-05T21:19:21.750Z,66.58
2022-11-05T21:21:49.997Z,66.82
2022-11-05T21:24:18.491Z,66.96
2022-11-05T21:26:47.143Z,66.87
2022-11-05T21:29:14.928Z,67.05
2022-11-05T21:31:42.725Z,67.14
2022-11-05T21:34:10.870Z,67.21
2022-11-05T21:36:39.250Z,67.32
2022-11-05T21:39:13.006Z,67.61
2022-11-05T21:41:42.740Z,67.70
2022-11-05T21:44:11.020Z,67.90
2022-11-05T21:46:38.922Z,68.30
2022-11-05T21:49:06.791Z,68.47
2022-11-05T21:51:53.757Z,68.38
2022-11-05T21:54:40.370Z,68.17
2022-11-05T21:57:32.469Z,68.41
2022-11-05T22:00:00.923Z,68.36
2022-11-05T22:02:29.177Z,68.29
2022-11-05T22:04:58.940Z,68.53
2022-11-05T22:07:29.019Z,68.30
2022-11-05T22:09:57.348Z,68.37
2022-11-05T22:12:25.526Z,68.44
2022-11-05T22:14:53.837Z,68.67
2022-11-05T22:17:22.001Z,68.77
2022-11-05T22:19:49.831Z,68.87
2022-11-05T22:22:17.692Z,69.05
2022-11-05T22:24:45.480Z,69.40
2022-11-05T22:27:15.493Z,69.53
2022-11-05T22:29:43.820Z,69.44
2022-11-05T22:32:12.409Z,69.66
2022-11-05T22:34:40.225Z,69.55
2022-11-05T22:37:08.580Z,69.58
2022-11-05T22:39:36.408Z,69.56
2022-11-05T22:42:08.449Z,69.67
2022-11-05T22:44:36.986Z,69.60
2022-11-05T22:47:05.538Z,69.76
2022-11-05T22:49:33.886Z,69.53
2022-11-05T22:52:02.349Z,69.55
2022-11-05T22:54:35.106Z,69.57
2022-11-05T22:57:06.125Z,69.63
2022-11-05T22:59:34.733Z,69.38
2022-11-05T23:02:08.224Z,69.30
2022-11-05T23:04:38.856Z,69.26
2022-11-05T23:07:27.960Z,69.21
2022-11-05T23:10:15.011Z,69.18
2022-11-05T23:12:44.305Z,69.05
2022-11-05T23:15:32.323Z,69.14
2022-11-05T23:18:19.006Z,69.01
2022-11-05T23:21:05.872Z,68.88
2022-11-05T23:23:52.375Z,68.95
2022-11-05T23:26:39.052Z,68.81
2022-11-05T23:29:07.113Z,68.77
2022-11-05T23:31:53.911Z,68.63
2022-11-05T23:34:21.653Z,68.60
2022-11-05T23:37:08.255Z,68.48
2022-11-05T23:39:42.225Z,68.41
2022-11-05T23:42:30.556Z,68.46
2022-11-05T23:45:17.226Z,68.27
2022-11-05T23:48:04.113Z,68.26
2022-11-05T23:50:37.102Z,68.16
2022-11-05T23:53:07.548Z,68.13
2022-11-05T23:55:35.974Z,68.07
2022-11-05T23:58:04.137Z,68.18
